createdAt,value
2019-04-23T00:01:14.752Z,98253.35
2019-04-23T00:03:38.934Z,98237.69
2019-04-23T00:06:19.052Z,98232.89
2019-04-23T00:11:26.039Z,98252.33
2019-04-23T00:16:49.293Z,98249.95
2019-04-23T00:19:10.280Z,98260.56
2019-04-23T00:21:50.662Z,98268.59
2019-04-23T00:24:34.877Z,98276.09
2019-04-23T00:27:11.218Z,98273.78
2019-04-23T00:29:44.704Z,98269.77
2019-04-23T00:32:08.183Z,98259.60
2019-04-23T00:39:52.845Z,98280.83
2019-04-23T00:42:31.424Z,98297.77
2019-04-23T00:44:57.217Z,98288.07
2019-04-23T00:47:38.710Z,98289.30
2019-04-23T00:50:26.143Z,98291.97
2019-04-23T00:52:45.781Z,98295.16
2019-04-23T00:55:28.357Z,98286.01
2019-04-23T00:58:12.561Z,98292.66
2019-04-23T01:03:21.447Z,98305.95
2019-04-23T01:06:21.270Z,98288.87
2019-04-23T01:08:49.768Z,98278.97
2019-04-23T01:11:16.664Z,98282.92
2019-04-23T01:13:54.114Z,98282.36
2019-04-23T01:16:28.301Z,98285.74
2019-04-23T01:19:24.375Z,98283.44
2019-04-23T01:21:18.034Z,98284.09
2019-04-23T01:24:01.601Z,98281.59
2019-04-23T01:26:50.326Z,98290.20
2019-04-23T01:29:37.856Z,98289.34
2019-04-23T01:32:09.445Z,98306.97
2019-04-23T01:34:42.455Z,98304.25
2019-04-23T01:37:24.060Z,98309.70
2019-04-23T01:39:52.434Z,98312.69
2019-04-23T01:42:39.569Z,98317.24
2019-04-23T01:45:12.037Z,98313.42
2019-04-23T01:47:45.841Z,98308.93
2019-04-23T01:53:08.612Z,98296.45
2019-04-23T01:55:27.812Z,98280.22
2019-04-23T01:58:23.769Z,98294.01
2019-04-23T02:00:40.717Z,98278.19
2019-04-23T02:03:16.617Z,98270.89
2019-04-23T02:05:56.907Z,98297.41
2019-04-23T02:08:25.655Z,98308.86
2019-04-23T02:11:05.563Z,98325.12
2019-04-23T02:13:38.430Z,98329.72
2019-04-23T02:16:17.526Z,98328.58
2019-04-23T02:18:52.530Z,98338.70
2019-04-23T02:21:26.052Z,98339.61
2019-04-23T02:23:53.686Z,98338.31
2019-04-23T02:26:35.675Z,98342.93
2019-04-23T02:31:58.305Z,98319.28
2019-04-23T02:37:06.687Z,98320.23
2019-04-23T02:44:45.210Z,98303.81
2019-04-23T02:47:25.438Z,98308.56
2019-04-23T02:50:33.276Z,98319.02
2019-04-23T02:57:41.601Z,98321.13
2019-04-23T03:03:01.202Z,98317.05
2019-04-23T03:05:36.645Z,98312.80
2019-04-23T03:08:02.168Z,98318.91
2019-04-23T03:13:29.520Z,98323.39
2019-04-23T03:16:04.182Z,98326.63
2019-04-23T03:18:44.117Z,98317.65
2019-04-23T03:21:19.114Z,98310.81
2019-04-23T03:23:52.281Z,98321.23
2019-04-23T03:28:57.787Z,98330.33
2019-04-23T03:39:40.243Z,98295.70
2019-04-23T03:44:50.056Z,98294.34
2019-04-23T03:49:55.776Z,98299.64
2019-04-23T03:55:05.222Z,98289.86
2019-04-23T04:00:31.104Z,98297.55
2019-04-23T04:08:13.347Z,98291.57
2019-04-23T04:10:48.294Z,98289.77
2019-04-23T04:13:16.431Z,98291.95
2019-04-23T04:18:33.274Z,98294.59
2019-04-23T04:21:01.084Z,98300.23
2019-04-23T04:23:33.271Z,98297.06
2019-04-23T04:26:07.014Z,98298.77
2019-04-23T04:29:00.638Z,98300.11
2019-04-23T04:35:07.247Z,98297.89
2019-04-23T04:42:59.862Z,98283.09
2019-04-23T04:45:43.119Z,98283.25
2019-04-23T04:48:09.515Z,98291.49
2019-04-23T04:50:56.870Z,98282.11
2019-04-23T04:53:44.945Z,98281.66
2019-04-23T04:56:07.728Z,98283.64
2019-04-23T04:58:43.300Z,98288.64
2019-04-23T05:01:13.977Z,98288.68
2019-04-23T05:03:54.769Z,98279.02
2019-04-23T05:06:24.479Z,98279.15
2019-04-23T05:11:39.030Z,98287.42
2019-04-23T05:19:25.070Z,98282.51
2019-04-23T05:21:53.982Z,98281.70
2019-04-23T05:24:30.653Z,98278.13
2019-04-23T05:26:58.476Z,98277.34
2019-04-23T05:29:51.230Z,98281.99
2019-04-23T05:32:27.309Z,98287.43
2019-04-23T05:34:48.593Z,98285.67
2019-04-23T05:37:20.518Z,98280.45
2019-04-23T05:39:59.221Z,98285.70
2019-04-23T05:42:31.999Z,98287.08
2019-04-23T05:45:02.916Z,98282.24
2019-04-23T05:48:01.072Z,98276.05
2019-04-23T05:50:17.510Z,98273.09
2019-04-23T05:52:52.819Z,98268.89
2019-04-23T05:55:18.710Z,98275.30
2019-04-23T05:58:05.161Z,98281.22
2019-04-23T06:03:16.565Z,98283.84
2019-04-23T06:05:59.359Z,98276.85
2019-04-23T06:11:05.651Z,98283.67
2019-04-23T06:13:44.691Z,98282.28
2019-04-23T06:16:13.742Z,98271.55
2019-04-23T06:18:44.385Z,98278.72
2019-04-23T06:21:25.287Z,98278.93
2019-04-23T06:24:06.264Z,98277.13
2019-04-23T06:29:19.458Z,98275.34
2019-04-23T06:34:24.771Z,98267.14
2019-04-23T06:36:54.136Z,98278.50
2019-04-23T06:39:33.245Z,98268.13
2019-04-23T06:42:03.979Z,98264.96
2019-04-23T06:44:37.760Z,98271.69
2019-04-23T06:47:13.029Z,98265.86
2019-04-23T06:49:51.702Z,98265.13
2019-04-23T06:52:21.885Z,98255.23
2019-04-23T06:57:48.284Z,98253.36
2019-04-23T07:00:29.502Z,98256.34
2019-04-23T07:03:08.843Z,98259.44
2019-04-23T07:05:39.288Z,98260.50
2019-04-23T07:08:22.500Z,98261.93
2019-04-23T07:10:53.494Z,98265.27
2019-04-23T07:13:36.137Z,98265.81
2019-04-23T07:16:00.711Z,98261.67
2019-04-23T07:18:34.568Z,98262.52
2019-04-23T07:21:16.641Z,98256.52
2019-04-23T07:23:54.681Z,98259.05
2019-04-23T07:26:29.872Z,98266.31
2019-04-23T07:34:12.361Z,98260.23
2019-04-23T07:36:55.706Z,98262.42
2019-04-23T07:39:27.529Z,98265.13
2019-04-23T07:42:09.295Z,98270.53
2019-04-23T07:44:43.789Z,98270.50
2019-04-23T07:47:20.415Z,98273.00
2019-04-23T07:50:06.271Z,98269.55
2019-04-23T07:52:27.544Z,98273.63
2019-04-23T07:55:02.207Z,98269.66
2019-04-23T07:57:35.061Z,98269.42
2019-04-23T08:00:12.505Z,98263.43
2019-04-23T08:02:43.795Z,98270.18
2019-04-23T08:05:22.622Z,98272.41
2019-04-23T08:07:55.874Z,98271.64
2019-04-23T08:10:29.895Z,98273.80
2019-04-23T08:13:09.517Z,98273.45
2019-04-23T08:15:42.985Z,98276.00
2019-04-23T08:18:18.642Z,98274.53
2019-04-23T08:23:34.822Z,98282.75
2019-04-23T08:26:12.983Z,98290.73
2019-04-23T08:28:49.937Z,98287.73
2019-04-23T08:31:15.280Z,98284.17
2019-04-23T08:33:56.585Z,98284.98
2019-04-23T08:36:29.452Z,98289.89
2019-04-23T08:38:58.675Z,98292.28
2019-04-23T08:44:16.912Z,98294.39
2019-04-23T08:46:51.108Z,98294.19
2019-04-23T08:49:22.754Z,98299.38
2019-04-23T08:54:52.309Z,98308.95
2019-04-23T09:00:17.807Z,98305.02
2019-04-23T09:03:13.097Z,98306.16
2019-04-23T09:16:22.132Z,98305.17
2019-04-23T09:21:21.363Z,98308.42
2019-04-23T09:23:54.046Z,98305.36
2019-04-23T09:26:25.862Z,98302.37
2019-04-23T09:29:04.194Z,98296.80
2019-04-23T09:32:00.828Z,98303.15
2019-04-23T09:34:11.404Z,98307.27
2019-04-23T09:36:51.485Z,98300.75
2019-04-23T09:39:32.967Z,98306.89
2019-04-23T09:42:02.230Z,98312.27
2019-04-23T09:44:56.286Z,98299.42
2019-04-23T09:47:15.927Z,98315.94
2019-04-23T09:49:54.036Z,98317.06
2019-04-23T09:52:27.052Z,98318.34
2019-04-23T09:55:11.107Z,98320.30
2019-04-23T09:57:36.021Z,98324.30
2019-04-23T10:00:16.985Z,98329.11
2019-04-23T10:02:34.260Z,98338.53
2019-04-23T10:05:11.108Z,98344.86
2019-04-23T10:07:44.207Z,98341.30
2019-04-23T10:10:08.062Z,98348.90
2019-04-23T10:12:42.198Z,98342.45
2019-04-23T10:15:22.860Z,98353.28
2019-04-23T10:17:51.954Z,98352.63
2019-04-23T10:20:26.780Z,98357.63
2019-04-23T10:23:02.149Z,98353.30
2019-04-23T10:25:37.995Z,98344.14
2019-04-23T10:28:12.778Z,98338.83
2019-04-23T10:30:48.958Z,98344.89
2019-04-23T10:33:23.591Z,98343.92
2019-04-23T10:36:03.200Z,98350.16
2019-04-23T10:38:32.736Z,98347.17
2019-04-23T10:41:07.582Z,98357.25
2019-04-23T10:43:43.973Z,98362.55
2019-04-23T10:46:36.446Z,98364.53
2019-04-23T10:51:51.745Z,98364.95
2019-04-23T10:54:39.597Z,98383.47
2019-04-23T10:57:07.392Z,98387.63
2019-04-23T11:04:57.819Z,98402.47
2019-04-23T11:07:33.999Z,98411.42
2019-04-23T11:10:21.926Z,98417.25
2019-04-23T11:18:34.098Z,98441.89
2019-04-23T11:20:45.188Z,98447.42
2019-04-23T11:23:11.540Z,98455.50
2019-04-23T11:25:48.549Z,98463.91
2019-04-23T11:28:33.050Z,98464.79
2019-04-23T11:31:15.697Z,98461.19
2019-04-23T11:33:52.305Z,98465.58
2019-04-23T11:41:51.263Z,98484.31
2019-04-23T11:44:14.276Z,98479.55
2019-04-23T11:46:53.889Z,98490.66
2019-04-23T11:49:51.105Z,98492.84
2019-04-23T11:59:53.501Z,98506.69
2019-04-23T12:02:23.225Z,98501.86
2019-04-23T12:07:34.390Z,98507.86
2019-04-23T12:10:22.291Z,98517.05
2019-04-23T12:12:44.615Z,98522.66
2019-04-23T12:18:10.625Z,98528.26
2019-04-23T12:20:37.610Z,98525.17
2019-04-23T12:25:58.771Z,98537.83
2019-04-23T12:28:30.099Z,98540.13
2019-04-23T12:31:26.448Z,98544.63
2019-04-23T12:33:50.523Z,98540.27
2019-04-23T12:36:25.927Z,98545.53
2019-04-23T12:38:57.113Z,98548.28
2019-04-23T12:41:41.699Z,98554.03
2019-04-23T12:44:16.202Z,98555.06
2019-04-23T12:46:54.220Z,98571.42
2019-04-23T12:50:01.206Z,98573.63
2019-04-23T12:52:04.587Z,98560.61
2019-04-23T12:57:18.719Z,98564.15
2019-04-23T12:59:58.405Z,98548.63
2019-04-23T13:02:39.784Z,98553.72
2019-04-23T13:05:25.995Z,98556.27
2019-04-23T13:15:30.948Z,98556.59
2019-04-23T13:18:04.325Z,98563.03
2019-04-23T13:20:38.443Z,98570.71
2019-04-23T13:23:22.150Z,98576.39
2019-04-23T13:28:31.994Z,98562.11
2019-04-23T13:31:26.582Z,98564.42
2019-04-23T13:33:58.109Z,98557.98
2019-04-23T13:39:01.937Z,98556.03
2019-04-23T13:41:40.599Z,98548.21
2019-04-23T13:44:17.103Z,98541.64
2019-04-23T13:46:50.971Z,98544.41
2019-04-23T13:49:37.654Z,98550.50
2019-04-23T13:52:27.702Z,98546.92
2019-04-23T13:54:59.941Z,98543.11
2019-04-23T13:57:49.769Z,98543.50
2019-04-23T14:00:09.500Z,98556.84
2019-04-23T14:02:42.530Z,98554.38
2019-04-23T14:05:15.883Z,98560.06
2019-04-23T14:07:54.155Z,98572.24
2019-04-23T14:10:36.639Z,98578.92
2019-04-23T14:13:37.337Z,98575.58
2019-04-23T14:15:55.717Z,98580.04
2019-04-23T14:20:53.544Z,98572.66
2019-04-23T14:23:41.246Z,98564.95
2019-04-23T14:26:23.232Z,98569.34
2019-04-23T14:28:41.797Z,98572.09
2019-04-23T14:31:10.563Z,98577.71
2019-04-23T14:34:00.086Z,98574.38
2019-04-23T14:36:26.989Z,98577.14
2019-04-23T14:39:15.780Z,98573.07
2019-04-23T14:41:54.128Z,98575.75
2019-04-23T14:47:03.387Z,98587.03
2019-04-23T14:49:29.480Z,98584.37
2019-04-23T14:52:00.360Z,98582.42
2019-04-23T14:55:05.704Z,98592.55
2019-04-23T14:59:46.874Z,98615.16
2019-04-23T15:02:28.795Z,98615.16
2019-04-23T15:04:54.106Z,98624.09
2019-04-23T15:07:39.176Z,98624.09
2019-04-23T15:10:18.413Z,98627.57
2019-04-23T15:12:45.624Z,98627.17
2019-04-23T15:15:26.926Z,98630.66
2019-04-23T15:17:55.767Z,98619.70
2019-04-23T15:20:33.031Z,98621.91
2019-04-23T15:26:55.123Z,98622.84
2019-04-23T15:28:09.328Z,98631.33
2019-04-23T15:30:57.321Z,98636.40
2019-04-23T15:38:45.466Z,98626.80
2019-04-23T15:41:13.840Z,98624.55
2019-04-23T15:43:49.549Z,98626.94
2019-04-23T15:46:25.461Z,98632.69
2019-04-23T15:49:07.668Z,98635.00
2019-04-23T15:51:35.745Z,98633.91
2019-04-23T15:54:15.134Z,98636.98
2019-04-23T16:01:43.131Z,98629.37
2019-04-23T16:03:59.136Z,98624.41
2019-04-23T16:06:36.781Z,98620.48
2019-04-23T16:09:34.031Z,98616.95
2019-04-23T16:12:04.638Z,98614.76
2019-04-23T16:14:47.947Z,98609.44
2019-04-23T16:17:20.962Z,98610.75
2019-04-23T16:20:12.171Z,98624.38
2019-04-23T16:22:32.089Z,98631.98
2019-04-23T16:25:09.865Z,98633.45
2019-04-23T16:27:44.339Z,98624.27
2019-04-23T16:30:38.221Z,98627.29
2019-04-23T16:33:08.827Z,98627.05
2019-04-23T16:38:19.709Z,98622.43
2019-04-23T16:40:37.423Z,98626.87
2019-04-23T16:51:14.431Z,98646.00
2019-04-23T16:56:13.485Z,98642.95
2019-04-23T17:01:12.552Z,98647.73
2019-04-23T17:03:59.969Z,98652.03
2019-04-23T17:06:44.095Z,98658.02
2019-04-23T17:08:59.832Z,98669.88
2019-04-23T17:11:55.187Z,98680.34
2019-04-23T17:14:13.420Z,98706.69
2019-04-23T17:16:41.671Z,98717.81
2019-04-23T17:19:38.254Z,98724.97
2019-04-23T17:22:01.123Z,98737.88
2019-04-23T17:29:49.148Z,98745.30
2019-04-23T17:32:19.665Z,98743.63
2019-04-23T17:42:37.634Z,98744.65
2019-04-23T17:47:52.090Z,98744.13
2019-04-23T17:50:28.733Z,98744.48
2019-04-23T17:53:03.336Z,98757.77
2019-04-23T17:55:46.295Z,98796.59
2019-04-23T17:58:22.426Z,98799.66
2019-04-23T18:00:51.718Z,98808.88
2019-04-23T18:03:25.926Z,98811.15
2019-04-23T18:06:14.277Z,98818.77
2019-04-23T18:08:37.725Z,98825.61
2019-04-23T18:13:43.304Z,98832.99
2019-04-23T18:19:10.135Z,98841.75
2019-04-23T18:24:13.358Z,98848.09
2019-04-23T18:26:42.989Z,98843.28
2019-04-23T18:29:17.289Z,98849.84
2019-04-23T18:32:01.127Z,98840.16
2019-04-23T18:34:25.239Z,98844.13
2019-04-23T18:37:02.728Z,98841.38
2019-04-23T18:39:36.468Z,98845.11
2019-04-23T18:42:21.488Z,98844.66
2019-04-23T18:44:51.409Z,98842.35
2019-04-23T18:49:55.546Z,98829.71
2019-04-23T18:52:41.210Z,98851.03
2019-04-23T18:55:16.484Z,98867.45
2019-04-23T18:57:46.894Z,98871.56
2019-04-23T19:00:25.051Z,98876.63
2019-04-23T19:02:56.146Z,98868.98
2019-04-23T19:05:36.285Z,98872.73
2019-04-23T19:08:08.668Z,98859.01
2019-04-23T19:10:38.721Z,98861.92
2019-04-23T19:18:27.093Z,98877.03
2019-04-23T19:21:20.812Z,98885.88
2019-04-23T19:26:02.247Z,98876.08
2019-04-23T19:28:50.270Z,98883.61
2019-04-23T19:34:02.948Z,98896.94
2019-04-23T19:36:26.535Z,98884.86
2019-04-23T19:39:03.587Z,98876.81
2019-04-23T19:41:49.596Z,98880.44
2019-04-23T19:46:54.807Z,98908.20
2019-04-23T19:49:38.549Z,98916.05
2019-04-23T19:57:26.789Z,98940.58
2019-04-23T20:04:56.159Z,98934.87
2019-04-23T20:09:57.018Z,98939.92
2019-04-23T20:12:42.919Z,98935.36
2019-04-23T20:15:07.198Z,98940.00
2019-04-23T20:17:50.634Z,98940.78
2019-04-23T20:20:26.475Z,98952.16
2019-04-23T20:22:56.804Z,98949.37
2019-04-23T20:26:02.728Z,98945.92
2019-04-23T20:28:41.229Z,98934.22
2019-04-23T20:36:36.824Z,98933.30
2019-04-23T20:39:12.242Z,98936.63
2019-04-23T20:41:44.510Z,98943.77
2019-04-23T20:44:11.886Z,98948.48
2019-04-23T20:46:51.726Z,98951.78
2019-04-23T20:49:20.210Z,98966.31
2019-04-23T20:52:00.452Z,98970.55
2019-04-23T20:57:20.671Z,98982.32
2019-04-23T20:59:40.861Z,98990.30
2019-04-23T21:02:26.954Z,98996.98
2019-04-23T21:05:00.929Z,99010.34
2019-04-23T21:07:47.071Z,99010.34
2019-04-23T21:10:18.048Z,99005.25
2019-04-23T21:15:19.861Z,99001.41
2019-04-23T21:17:58.199Z,98996.66
2019-04-23T21:23:06.269Z,98975.73
2019-04-23T21:28:11.534Z,99002.69
2019-04-23T21:36:12.616Z,99050.23
2019-04-23T21:38:47.522Z,99061.89
2019-04-23T21:41:21.383Z,99062.79
2019-04-23T21:44:00.582Z,99050.50
2019-04-23T21:46:38.269Z,99041.19
2019-04-23T21:49:19.743Z,99034.67
2019-04-23T21:52:02.107Z,99035.02
2019-04-23T21:54:13.257Z,99035.17
2019-04-23T21:56:55.412Z,99024.52
2019-04-23T21:59:31.247Z,99016.46
2019-04-23T22:02:03.574Z,99023.78
2019-04-23T22:04:44.994Z,99047.44
2019-04-23T22:07:16.749Z,99062.98
2019-04-23T22:10:00.427Z,99073.34
2019-04-23T22:13:00.017Z,99081.78
2019-04-23T22:15:03.052Z,99090.28
2019-04-23T22:17:39.222Z,99103.06
2019-04-23T22:20:21.462Z,99105.13
2019-04-23T22:25:27.487Z,99132.36
2019-04-23T22:28:02.371Z,99144.51
2019-04-23T22:30:37.075Z,99142.70
2019-04-23T22:33:21.847Z,99142.94
2019-04-23T22:36:06.242Z,99134.39
2019-04-23T22:38:28.854Z,99137.56
2019-04-23T22:40:56.332Z,99155.31
2019-04-23T22:43:29.988Z,99169.02
2019-04-23T22:46:18.255Z,99173.36
2019-04-23T22:48:47.629Z,99180.95
2019-04-23T22:51:21.070Z,99182.87
2019-04-23T22:54:02.681Z,99188.89
2019-04-23T22:56:27.562Z,99197.46
2019-04-23T22:59:11.917Z,99197.34
2019-04-23T23:04:24.217Z,99199.20
2019-04-23T23:09:25.381Z,99209.86
2019-04-23T23:12:19.631Z,99203.91
2019-04-23T23:14:41.883Z,99204.82
2019-04-23T23:17:11.510Z,99207.74
2019-04-23T23:19:49.993Z,99213.39
2019-04-23T23:22:20.257Z,99220.16
2019-04-23T23:25:04.706Z,99211.42
2019-04-23T23:27:30.567Z,99211.51
2019-04-23T23:30:15.666Z,99211.19
2019-04-23T23:35:22.634Z,99215.25
2019-04-23T23:37:59.391Z,99215.78
2019-04-23T23:40:35.561Z,99208.05
2019-04-23T23:43:13.535Z,99206.45
2019-04-23T23:45:44.915Z,99196.31
2019-04-23T23:48:12.871Z,99201.53
2019-04-23T23:53:32.785Z,99225.11
2019-04-23T23:58:45.814Z,99206.77
